createdAt,value
2023-04-15T00:01:05.940Z,5.68
2023-04-15T00:03:34.485Z,5.67
2023-04-15T00:06:01.673Z,5.68
2023-04-15T00:08:28.934Z,5.65
2023-04-15T00:10:55.573Z,5.70
2023-04-15T00:13:22.145Z,5.70
2023-04-15T00:15:48.706Z,5.74
2023-04-15T00:18:15.292Z,5.77
2023-04-15T00:20:41.860Z,5.75
2023-04-15T00:23:08.565Z,5.70
2023-04-15T00:25:35.174Z,5.65
2023-04-15T00:28:01.746Z,5.64
2023-04-15T00:30:28.397Z,5.66
2023-04-15T00:32:55.357Z,5.67
2023-04-15T00:35:22.496Z,5.67
2023-04-15T00:37:51.593Z,5.65
2023-04-15T00:40:20.938Z,5.64
2023-04-15T00:42:47.934Z,5.66
2023-04-15T00:45:14.638Z,5.71
2023-04-15T00:47:43.259Z,5.67
2023-04-15T00:50:11.162Z,5.61
2023-04-15T00:52:39.053Z,5.63
2023-04-15T00:55:06.635Z,5.69
2023-04-15T00:57:33.536Z,5.75
2023-04-15T01:00:01.059Z,5.83
2023-04-15T01:02:28.118Z,5.83
2023-04-15T01:04:54.856Z,5.87
2023-04-15T01:07:21.448Z,5.85
2023-04-15T01:09:48.110Z,5.81
2023-04-15T01:12:16.605Z,5.80
2023-04-15T01:14:43.552Z,5.75
2023-04-15T01:17:10.225Z,5.76
2023-04-15T01:19:37.193Z,5.78
2023-04-15T01:22:05.290Z,5.76
2023-04-15T01:24:33.229Z,5.78
2023-04-15T01:27:00.027Z,5.78
2023-04-15T01:29:27.477Z,5.76
2023-04-15T01:31:55.929Z,5.71
2023-04-15T01:34:25.900Z,5.70
2023-04-15T01:36:53.936Z,5.73
2023-04-15T01:39:21.733Z,5.80
2023-04-15T01:41:48.601Z,5.88
2023-04-15T01:44:16.463Z,5.93
2023-04-15T01:46:43.144Z,5.92
2023-04-15T01:49:09.746Z,5.93
2023-04-15T01:51:36.369Z,5.90
2023-04-15T01:54:03.149Z,5.89
2023-04-15T01:56:30.109Z,5.82
2023-04-15T01:58:57.005Z,5.75
2023-04-15T02:01:23.994Z,5.73
2023-04-15T02:03:50.779Z,5.70
2023-04-15T02:06:18.378Z,5.64
2023-04-15T02:08:45.182Z,5.67
2023-04-15T02:11:11.960Z,5.72
2023-04-15T02:13:38.641Z,5.71
2023-04-15T02:16:16.584Z,5.68
2023-04-15T02:18:47.531Z,5.67
2023-04-15T02:21:14.636Z,5.64
2023-04-15T02:23:41.480Z,5.71
2023-04-15T02:26:08.290Z,5.75
2023-04-15T02:28:35.089Z,5.76
2023-04-15T02:31:06.509Z,5.77
2023-04-15T02:33:33.571Z,5.74
2023-04-15T02:36:01.043Z,5.72
2023-04-15T02:38:28.325Z,5.74
2023-04-15T02:40:55.448Z,5.75
2023-04-15T02:43:22.114Z,5.80
2023-04-15T02:45:50.273Z,5.78
2023-04-15T02:48:19.391Z,5.82
2023-04-15T02:50:47.129Z,5.82
2023-04-15T02:53:15.436Z,5.84
2023-04-15T02:55:42.932Z,5.85
2023-04-15T02:58:09.796Z,5.89
2023-04-15T03:00:36.617Z,5.93
2023-04-15T03:03:05.704Z,5.92
2023-04-15T03:05:32.669Z,5.86
2023-04-15T03:08:01.361Z,5.82
2023-04-15T03:10:28.462Z,5.80
2023-04-15T03:12:55.071Z,5.79
2023-04-15T03:15:23.554Z,5.84
2023-04-15T03:17:52.307Z,5.84
2023-04-15T03:20:19.602Z,5.83
2023-04-15T03:22:47.510Z,5.79
2023-04-15T03:25:14.235Z,5.77
2023-04-15T03:27:41.986Z,5.76
2023-04-15T03:30:09.323Z,5.78
2023-04-15T03:32:37.999Z,5.73
2023-04-15T03:35:06.705Z,5.74
2023-04-15T03:37:33.292Z,5.73
2023-04-15T03:39:59.863Z,5.72
2023-04-15T03:42:27.062Z,5.72
2023-04-15T03:44:53.696Z,5.72
2023-04-15T03:47:20.461Z,5.74
2023-04-15T03:49:47.022Z,5.75
2023-04-15T03:52:13.573Z,5.78
2023-04-15T03:54:40.186Z,5.78
2023-04-15T03:57:06.924Z,5.78
2023-04-15T03:59:33.524Z,5.83
2023-04-15T04:02:00.250Z,5.88
2023-04-15T04:04:27.061Z,5.89
2023-04-15T04:06:53.716Z,5.85
2023-04-15T04:09:20.627Z,5.87
2023-04-15T04:11:47.202Z,5.95
2023-04-15T04:14:13.805Z,5.99
2023-04-15T04:16:40.636Z,6.01
2023-04-15T04:19:07.653Z,6.04
2023-04-15T04:21:34.308Z,6.01
2023-04-15T04:24:01.054Z,6.03
2023-04-15T04:26:27.811Z,6.04
2023-04-15T04:28:54.383Z,6.04
2023-04-15T04:31:21.259Z,6.04
2023-04-15T04:33:47.795Z,6.07
2023-04-15T04:36:14.398Z,6.04
2023-04-15T04:38:41.010Z,6.06
2023-04-15T04:41:07.608Z,6.05
2023-04-15T04:43:34.172Z,6.05
2023-04-15T04:46:00.776Z,6.07
2023-04-15T04:48:27.505Z,6.02
2023-04-15T04:50:54.284Z,6.06
2023-04-15T04:53:21.131Z,6.11
2023-04-15T04:55:47.698Z,6.10
2023-04-15T04:58:14.265Z,6.06
2023-04-15T05:00:41.185Z,6.07
2023-04-15T05:03:08.080Z,6.08
2023-04-15T05:05:36.842Z,6.05
2023-04-15T05:08:03.467Z,6.05
2023-04-15T05:10:30.129Z,6.07
2023-04-15T05:12:57.679Z,6.09
2023-04-15T05:15:24.626Z,6.05
2023-04-15T05:17:51.654Z,6.04
2023-04-15T05:20:18.399Z,6.01
2023-04-15T05:22:45.045Z,6.05
2023-04-15T05:25:12.406Z,6.03
2023-04-15T05:27:38.955Z,6.07
2023-04-15T05:30:07.209Z,6.11
2023-04-15T05:32:33.900Z,6.11
2023-04-15T05:35:01.090Z,6.12
2023-04-15T05:37:27.708Z,6.08
2023-04-15T05:39:54.333Z,6.13
2023-04-15T05:42:21.002Z,6.13
2023-04-15T05:44:47.623Z,6.12
2023-04-15T05:47:14.292Z,6.10
2023-04-15T05:49:41.251Z,6.08
2023-04-15T05:52:07.798Z,6.07
2023-04-15T05:54:34.487Z,6.03
2023-04-15T05:57:01.754Z,6.02
2023-04-15T05:59:28.704Z,6.08
2023-04-15T06:01:55.376Z,6.14
2023-04-15T06:04:22.863Z,6.15
2023-04-15T06:06:49.629Z,6.16
2023-04-15T06:09:16.864Z,6.13
2023-04-15T06:11:43.476Z,6.13
2023-04-15T06:14:10.162Z,6.14
2023-04-15T06:16:37.475Z,6.12
2023-04-15T06:19:04.254Z,6.11
2023-04-15T06:21:31.636Z,6.09
2023-04-15T06:24:01.447Z,6.13
2023-04-15T06:26:28.313Z,6.18
2023-04-15T06:28:54.998Z,6.17
2023-04-15T06:31:21.681Z,6.17
2023-04-15T06:33:48.356Z,6.21
2023-04-15T06:36:15.458Z,6.25
2023-04-15T06:38:42.151Z,6.27
2023-04-15T06:41:09.074Z,6.31
2023-04-15T06:43:35.716Z,6.37
2023-04-15T06:46:02.421Z,6.35
2023-04-15T06:48:30.270Z,6.37
2023-04-15T06:50:58.291Z,6.38
2023-04-15T06:53:30.513Z,6.42
2023-04-15T06:55:57.054Z,6.43
2023-04-15T06:58:23.692Z,6.46
2023-04-15T07:00:50.405Z,6.46
2023-04-15T07:03:17.750Z,6.44
2023-04-15T07:05:44.835Z,6.38
2023-04-15T07:08:11.431Z,6.39
2023-04-15T07:10:38.163Z,6.42
2023-04-15T07:13:05.787Z,6.37
2023-04-15T07:15:32.411Z,6.34
2023-04-15T07:18:00.435Z,6.38
2023-04-15T07:20:27.286Z,6.39
2023-04-15T07:22:53.946Z,6.40
2023-04-15T07:25:20.830Z,6.43
2023-04-15T07:27:47.539Z,6.42
2023-04-15T07:30:14.139Z,6.49
2023-04-15T07:32:41.809Z,6.51
2023-04-15T07:35:09.675Z,6.48
2023-04-15T07:37:36.651Z,6.42
2023-04-15T07:40:04.947Z,6.42
2023-04-15T07:42:31.573Z,6.42
2023-04-15T07:44:58.202Z,6.45
2023-04-15T07:47:24.897Z,6.48
2023-04-15T07:49:52.980Z,6.47
2023-04-15T07:52:19.563Z,6.52
2023-04-15T07:54:46.203Z,6.63
2023-04-15T07:57:13.847Z,6.71
2023-04-15T07:59:40.465Z,6.80
2023-04-15T08:02:07.771Z,6.90
2023-04-15T08:04:35.693Z,6.98
2023-04-15T08:07:02.886Z,6.96
2023-04-15T08:09:31.144Z,6.99
2023-04-15T08:11:58.098Z,7.03
2023-04-15T08:14:24.698Z,7.13
2023-04-15T08:16:51.505Z,7.18
2023-04-15T08:19:18.047Z,7.16
2023-04-15T08:21:44.758Z,7.13
2023-04-15T08:24:11.571Z,7.18
2023-04-15T08:26:38.205Z,7.25
2023-04-15T08:29:05.086Z,7.26
2023-04-15T08:31:32.045Z,7.26
2023-04-15T08:33:59.385Z,7.27
2023-04-15T08:36:27.026Z,7.27
2023-04-15T08:38:53.629Z,7.32
2023-04-15T08:41:25.580Z,7.32
2023-04-15T08:44:02.601Z,7.44
2023-04-15T08:46:31.471Z,7.53
2023-04-15T08:48:58.897Z,7.52
2023-04-15T08:51:27.170Z,7.55
2023-04-15T08:53:55.209Z,7.58
2023-04-15T08:56:26.985Z,7.57
2023-04-15T08:58:53.818Z,7.49
2023-04-15T09:01:21.145Z,7.45
2023-04-15T09:03:50.458Z,7.50
2023-04-15T09:06:18.375Z,7.52
2023-04-15T09:08:45.128Z,7.58
2023-04-15T09:11:12.290Z,7.49
2023-04-15T09:13:39.204Z,7.43
2023-04-15T09:16:06.675Z,7.33
2023-04-15T09:18:34.851Z,7.19
2023-04-15T09:21:11.735Z,7.22
2023-04-15T09:23:41.191Z,7.23
2023-04-15T09:26:08.353Z,7.33
2023-04-15T09:28:42.442Z,7.43
2023-04-15T09:31:10.399Z,7.53
2023-04-15T09:33:55.808Z,7.60
2023-04-15T09:36:22.575Z,7.64
2023-04-15T09:38:57.233Z,7.74
2023-04-15T09:41:25.720Z,7.73
2023-04-15T09:43:52.600Z,7.64
2023-04-15T09:46:19.473Z,7.52
2023-04-15T09:48:46.233Z,7.51
2023-04-15T09:51:13.029Z,7.44
2023-04-15T09:53:39.630Z,7.38
2023-04-15T09:56:07.969Z,7.33
2023-04-15T09:58:36.116Z,7.33
2023-04-15T10:01:06.373Z,7.35
2023-04-15T10:03:36.858Z,7.41
2023-04-15T10:06:04.126Z,7.44
2023-04-15T10:08:33.671Z,7.41
2023-04-15T10:11:02.368Z,7.29
2023-04-15T10:13:33.349Z,7.28
2023-04-15T10:16:06.404Z,7.27
2023-04-15T10:18:36.194Z,7.29
2023-04-15T10:21:02.808Z,7.34
2023-04-15T10:23:29.356Z,7.36
2023-04-15T10:25:57.521Z,7.37
2023-04-15T10:28:24.875Z,7.42
2023-04-15T10:30:53.436Z,7.47
2023-04-15T10:33:23.220Z,7.48
2023-04-15T10:35:53.085Z,7.52
2023-04-15T10:38:43.130Z,7.57
2023-04-15T10:41:23.641Z,7.57
2023-04-15T10:44:16.743Z,7.67
2023-04-15T10:46:47.330Z,7.74
2023-04-15T10:49:15.211Z,7.78
2023-04-15T10:51:47.620Z,7.79
2023-04-15T10:54:32.142Z,7.81
2023-04-15T10:57:01.918Z,7.80
2023-04-15T10:59:32.827Z,7.88
2023-04-15T11:02:05.933Z,7.98
2023-04-15T11:04:55.463Z,8.00
2023-04-15T11:07:40.726Z,8.18
2023-04-15T11:10:13.477Z,8.30
2023-04-15T11:12:41.953Z,8.45
2023-04-15T11:15:33.134Z,8.51
2023-04-15T11:18:10.337Z,8.45
2023-04-15T11:20:38.361Z,8.40
2023-04-15T11:23:13.938Z,8.43
2023-04-15T11:25:43.608Z,8.37
2023-04-15T11:28:11.963Z,8.34
2023-04-15T11:30:40.050Z,8.30
2023-04-15T11:33:09.590Z,8.38
2023-04-15T11:35:36.394Z,8.53
2023-04-15T11:38:04.530Z,8.67
2023-04-15T11:40:33.387Z,8.76
2023-04-15T11:43:12.467Z,8.78
2023-04-15T11:46:00.417Z,8.81
2023-04-15T11:48:32.810Z,8.77
2023-04-15T11:51:06.965Z,8.70
2023-04-15T11:53:37.157Z,8.67
2023-04-15T11:56:03.974Z,8.69
2023-04-15T11:58:30.527Z,8.73
2023-04-15T12:01:00.274Z,8.78
2023-04-15T12:03:29.359Z,8.85
2023-04-15T12:06:11.849Z,8.87
2023-04-15T12:08:51.116Z,8.88
2023-04-15T12:11:17.989Z,8.77
2023-04-15T12:13:46.160Z,8.72
2023-04-15T12:16:12.791Z,8.67
2023-04-15T12:18:39.482Z,8.76
2023-04-15T12:21:12.226Z,8.80
2023-04-15T12:23:40.333Z,8.80
2023-04-15T12:26:07.741Z,8.90
2023-04-15T12:28:37.020Z,9.05
2023-04-15T12:31:10.617Z,9.06
2023-04-15T12:33:37.745Z,8.99
2023-04-15T12:36:04.684Z,8.92
2023-04-15T12:38:34.371Z,8.72
2023-04-15T12:41:01.211Z,8.64
2023-04-15T12:43:27.830Z,8.54
2023-04-15T12:45:56.736Z,8.51
2023-04-15T12:48:23.458Z,8.52
2023-04-15T12:50:50.104Z,8.55
2023-04-15T12:53:17.721Z,8.62
2023-04-15T12:55:44.286Z,8.72
2023-04-15T12:58:12.050Z,8.79
2023-04-15T13:00:39.001Z,8.80
2023-04-15T13:03:07.059Z,8.83
2023-04-15T13:05:34.090Z,8.83
2023-04-15T13:08:00.898Z,8.81
2023-04-15T13:10:28.308Z,8.82
2023-04-15T13:12:56.583Z,8.79
2023-04-15T13:15:23.581Z,8.79
2023-04-15T13:17:50.557Z,8.89
2023-04-15T13:20:17.518Z,8.91
2023-04-15T13:22:44.245Z,8.99
2023-04-15T13:25:10.827Z,9.02
2023-04-15T13:27:37.564Z,9.02
2023-04-15T13:30:05.519Z,9.06
2023-04-15T13:32:32.219Z,9.12
2023-04-15T13:34:59.395Z,9.16
2023-04-15T13:37:27.957Z,9.29
2023-04-15T13:39:56.254Z,9.39
2023-04-15T13:42:24.496Z,9.49
2023-04-15T13:44:51.655Z,9.57
2023-04-15T13:47:19.704Z,9.68
2023-04-15T13:49:46.345Z,9.87
2023-04-15T13:52:12.991Z,10.09
2023-04-15T13:54:39.865Z,10.18
2023-04-15T13:57:07.016Z,10.19
2023-04-15T13:59:35.010Z,10.27
2023-04-15T14:02:02.303Z,10.15
2023-04-15T14:04:29.048Z,10.15
2023-04-15T14:06:56.351Z,10.19
2023-04-15T14:09:26.202Z,10.21
2023-04-15T14:11:53.163Z,10.27
2023-04-15T14:14:19.773Z,10.22
2023-04-15T14:16:46.537Z,10.14
2023-04-15T14:19:13.189Z,10.14
2023-04-15T14:21:40.507Z,10.04
2023-04-15T14:24:07.117Z,10.03
2023-04-15T14:26:34.510Z,9.97
2023-04-15T14:29:01.121Z,9.91
2023-04-15T14:31:27.718Z,9.89
2023-04-15T14:33:54.407Z,9.82
2023-04-15T14:36:21.021Z,9.75
2023-04-15T14:38:48.700Z,9.79
2023-04-15T14:41:16.153Z,9.88
2023-04-15T14:43:42.820Z,10.02
2023-04-15T14:46:10.936Z,10.09
2023-04-15T14:48:37.759Z,9.99
2023-04-15T14:51:04.495Z,10.01
2023-04-15T14:53:31.244Z,9.97
2023-04-15T14:55:58.301Z,9.99
2023-04-15T14:58:25.358Z,10.00
2023-04-15T15:00:52.036Z,10.08
2023-04-15T15:03:18.954Z,10.06
2023-04-15T15:05:46.990Z,10.08
2023-04-15T15:08:14.338Z,10.14
2023-04-15T15:10:48.559Z,10.20
2023-04-15T15:13:17.508Z,10.29
2023-04-15T15:15:44.233Z,10.20
2023-04-15T15:18:11.508Z,10.13
2023-04-15T15:20:38.291Z,10.13
2023-04-15T15:23:05.026Z,10.14
2023-04-15T15:25:32.077Z,10.20
2023-04-15T15:27:58.702Z,10.21
2023-04-15T15:30:25.483Z,10.24
2023-04-15T15:32:52.194Z,10.34
2023-04-15T15:35:18.935Z,10.33
2023-04-15T15:37:46.031Z,10.22
2023-04-15T15:40:12.944Z,10.11
2023-04-15T15:42:39.726Z,10.02
2023-04-15T15:45:07.003Z,10.02
2023-04-15T15:47:33.726Z,10.00
2023-04-15T15:50:02.590Z,10.03
2023-04-15T15:52:30.296Z,9.96
2023-04-15T15:54:56.968Z,9.91
2023-04-15T15:57:23.540Z,9.82
2023-04-15T15:59:53.099Z,9.73
2023-04-15T16:02:45.855Z,9.62
2023-04-15T16:05:12.525Z,9.52
2023-04-15T16:07:39.937Z,9.48
2023-04-15T16:10:07.197Z,9.46
2023-04-15T16:12:35.065Z,9.48
2023-04-15T16:15:01.948Z,9.47
2023-04-15T16:17:29.794Z,9.45
2023-04-15T16:20:00.728Z,9.43
2023-04-15T16:22:28.245Z,9.40
2023-04-15T16:24:55.851Z,9.44
2023-04-15T16:27:23.469Z,9.50
2023-04-15T16:29:50.148Z,9.58
2023-04-15T16:32:16.848Z,9.60
2023-04-15T16:34:43.492Z,9.54
2023-04-15T16:37:10.226Z,9.50
2023-04-15T16:39:37.370Z,9.43
2023-04-15T16:42:04.154Z,9.36
2023-04-15T16:44:30.853Z,9.27
2023-04-15T16:46:57.683Z,9.19
2023-04-15T16:49:24.249Z,9.17
2023-04-15T16:51:51.421Z,9.13
2023-04-15T16:54:19.282Z,9.17
2023-04-15T16:56:46.145Z,9.19
2023-04-15T16:59:12.958Z,9.14
2023-04-15T17:01:40.129Z,9.11
2023-04-15T17:04:08.162Z,9.03
2023-04-15T17:06:34.870Z,8.93
2023-04-15T17:09:01.607Z,8.93
2023-04-15T17:11:28.421Z,8.89
2023-04-15T17:13:55.208Z,8.84
2023-04-15T17:16:21.930Z,8.79
2023-04-15T17:18:50.275Z,8.74
2023-04-15T17:21:17.661Z,8.70
2023-04-15T17:23:44.473Z,8.67
2023-04-15T17:26:11.418Z,8.65
2023-04-15T17:28:38.056Z,8.58
2023-04-15T17:31:05.186Z,8.53
2023-04-15T17:34:03.017Z,8.47
2023-04-15T17:36:18.584Z,8.41
2023-04-15T17:38:45.680Z,8.36
2023-04-15T17:41:12.475Z,8.32
2023-04-15T17:43:39.217Z,8.29
2023-04-15T17:46:08.935Z,8.26
2023-04-15T17:48:35.815Z,8.22
2023-04-15T17:51:02.840Z,8.18
2023-04-15T17:53:29.485Z,8.14
2023-04-15T17:55:57.710Z,8.11
2023-04-15T17:58:24.335Z,8.07
2023-04-15T18:00:51.095Z,8.01
2023-04-15T18:03:17.873Z,8.01
2023-04-15T18:05:44.836Z,7.99
2023-04-15T18:08:11.558Z,7.97
2023-04-15T18:10:38.858Z,7.93
2023-04-15T18:13:06.064Z,7.89
2023-04-15T18:15:33.303Z,7.86
2023-04-15T18:18:00.496Z,7.82
2023-04-15T18:20:27.853Z,7.80
2023-04-15T18:22:55.677Z,7.76
2023-04-15T18:25:22.293Z,7.75
2023-04-15T18:27:49.314Z,7.70
2023-04-15T18:30:16.317Z,7.67
2023-04-15T18:32:43.320Z,7.66
2023-04-15T18:35:10.176Z,7.64
2023-04-15T18:37:36.877Z,7.69
2023-04-15T18:40:03.814Z,7.76
2023-04-15T18:42:30.469Z,7.73
2023-04-15T18:44:57.235Z,7.69
2023-04-15T18:47:26.899Z,7.63
2023-04-15T18:49:54.047Z,7.56
2023-04-15T18:52:20.989Z,7.52
2023-04-15T18:54:47.590Z,7.48
2023-04-15T18:57:14.205Z,7.46
2023-04-15T18:59:47.155Z,7.43
2023-04-15T19:02:13.724Z,7.38
2023-04-15T19:04:40.398Z,7.32
2023-04-15T19:07:07.809Z,7.25
2023-04-15T19:09:34.422Z,7.24
2023-04-15T19:12:01.729Z,7.20
2023-04-15T19:14:28.550Z,7.17
2023-04-15T19:16:55.363Z,7.13
2023-04-15T19:19:22.155Z,7.14
2023-04-15T19:21:50.320Z,7.13
2023-04-15T19:24:18.201Z,7.13
2023-04-15T19:26:48.449Z,7.11
2023-04-15T19:29:15.086Z,7.10
2023-04-15T19:31:41.822Z,7.05
2023-04-15T19:34:08.428Z,7.03
2023-04-15T19:36:35.359Z,7.00
2023-04-15T19:39:02.404Z,6.99
2023-04-15T19:41:29.838Z,6.96
2023-04-15T19:43:56.692Z,6.97
2023-04-15T19:46:23.670Z,6.99
2023-04-15T19:48:50.307Z,7.00
2023-04-15T19:51:16.927Z,6.94
2023-04-15T19:53:43.829Z,6.92
2023-04-15T19:56:10.962Z,6.86
2023-04-15T19:58:37.761Z,6.81
2023-04-15T20:01:04.472Z,6.74
2023-04-15T20:03:31.459Z,6.73
2023-04-15T20:05:58.220Z,6.65
2023-04-15T20:08:25.018Z,6.62
2023-04-15T20:10:51.617Z,6.57
2023-04-15T20:13:18.247Z,6.52
2023-04-15T20:15:44.940Z,6.46
2023-04-15T20:18:11.582Z,6.43
2023-04-15T20:20:39.691Z,6.39
2023-04-15T20:23:06.687Z,6.36
2023-04-15T20:25:33.305Z,6.29
2023-04-15T20:28:01.089Z,6.29
2023-04-15T20:30:29.151Z,6.26
2023-04-15T20:32:56.138Z,6.23
2023-04-15T20:35:22.977Z,6.21
2023-04-15T20:37:49.680Z,6.15
2023-04-15T20:40:16.291Z,6.15
2023-04-15T20:42:43.690Z,6.13
2023-04-15T20:45:10.644Z,6.11
2023-04-15T20:47:37.503Z,6.18
2023-04-15T20:50:04.525Z,6.18
2023-04-15T20:52:31.112Z,6.17
2023-04-15T20:54:57.709Z,6.16
2023-04-15T20:57:27.038Z,6.17
2023-04-15T20:59:53.698Z,6.16
2023-04-15T21:02:20.555Z,6.19
2023-04-15T21:04:47.268Z,6.19
2023-04-15T21:07:14.718Z,6.19
2023-04-15T21:09:42.975Z,6.23
2023-04-15T21:12:11.105Z,6.25
2023-04-15T21:14:39.432Z,6.27
2023-04-15T21:17:11.161Z,6.28
2023-04-15T21:19:38.751Z,6.27
2023-04-15T21:22:05.549Z,6.26
2023-04-15T21:24:32.162Z,6.26
2023-04-15T21:26:58.809Z,6.32
2023-04-15T21:29:25.985Z,6.35
2023-04-15T21:31:52.639Z,6.37
2023-04-15T21:34:19.275Z,6.42
2023-04-15T21:36:46.048Z,6.37
2023-04-15T21:39:12.670Z,6.34
2023-04-15T21:41:39.223Z,6.29
2023-04-15T21:44:06.034Z,6.27
2023-04-15T21:46:35.264Z,6.25
2023-04-15T21:49:02.977Z,6.29
2023-04-15T21:51:29.635Z,6.29
2023-04-15T21:53:56.254Z,6.28
2023-04-15T21:56:24.229Z,6.26
2023-04-15T21:58:54.187Z,6.24
2023-04-15T22:01:21.068Z,6.22
2023-04-15T22:03:47.989Z,6.24
2023-04-15T22:06:14.691Z,6.20
2023-04-15T22:08:53.118Z,6.20
2023-04-15T22:11:26.961Z,6.18
2023-04-15T22:13:54.653Z,6.15
2023-04-15T22:16:21.401Z,6.15
2023-04-15T22:18:48.164Z,6.12
2023-04-15T22:21:15.018Z,6.12
2023-04-15T22:23:41.687Z,6.13
2023-04-15T22:26:08.325Z,6.12
2023-04-15T22:28:34.975Z,6.13
2023-04-15T22:31:02.340Z,6.14
2023-04-15T22:33:29.349Z,6.16
2023-04-15T22:35:57.101Z,6.14
2023-04-15T22:38:24.589Z,6.12
2023-04-15T22:40:53.837Z,6.13
2023-04-15T22:43:20.493Z,6.13
2023-04-15T22:45:50.729Z,6.13
2023-04-15T22:48:18.501Z,6.12
2023-04-15T22:50:45.216Z,6.13
2023-04-15T22:53:12.182Z,6.19
2023-04-15T22:55:38.767Z,6.18
2023-04-15T22:58:05.531Z,6.14
2023-04-15T23:00:32.172Z,6.11
2023-04-15T23:02:58.890Z,6.08
2023-04-15T23:05:25.609Z,6.08
2023-04-15T23:07:52.284Z,6.07
2023-04-15T23:10:18.841Z,6.07
2023-04-15T23:12:45.560Z,6.08
2023-04-15T23:15:12.086Z,6.05
2023-04-15T23:17:38.863Z,6.02
2023-04-15T23:20:06.838Z,5.99
2023-04-15T23:22:37.451Z,5.97
2023-04-15T23:25:04.716Z,5.91
2023-04-15T23:27:31.384Z,5.85
2023-04-15T23:29:58.002Z,5.81
2023-04-15T23:32:24.589Z,5.76
2023-04-15T23:34:52.209Z,5.72
2023-04-15T23:37:19.061Z,5.70
2023-04-15T23:39:45.730Z,5.67
2023-04-15T23:42:12.677Z,5.66
2023-04-15T23:44:39.254Z,5.64
2023-04-15T23:47:05.971Z,5.61
2023-04-15T23:49:32.719Z,5.58
2023-04-15T23:51:59.308Z,5.53
2023-04-15T23:54:25.915Z,5.52
2023-04-15T23:56:52.480Z,5.51
2023-04-15T23:59:19.135Z,5.49
